TimeAKDT,TemperatureF,Dew PointF,Humidity,Sea Level PressureIn,VisibilityMPH,Wind Direction,Wind SpeedMPH,Gust SpeedMPH,PrecipitationIn,Events,Conditions,WindDirDegrees,DateUTC
12:54 AM,55.9,53.1,90,30.07,10.0,WNW,4.6,-,N/A,,Clear,290,2013-08-01 08:54:00
1:54 AM,55.9,53.1,90,30.08,10.0,WNW,6.9,-,N/A,,Clear,290,2013-08-01 09:54:00
2:54 AM,55.0,52.0,89,30.08,10.0,Calm,Calm,-,N/A,,Clear,0,2013-08-01 10:54:00
3:54 AM,55.9,53.1,90,30.08,10.0,Calm,Calm,-,N/A,,Clear,0,2013-08-01 11:54:00
4:54 AM,53.1,51.1,93,30.07,10.0,Calm,Calm,-,N/A,,Scattered Clouds,0,2013-08-01 12:54:00
5:54 AM,55.0,53.1,93,30.07,10.0,Calm,Calm,-,N/A,,Partly Cloudy,0,2013-08-01 13:54:00
6:54 AM,55.9,52.0,87,30.06,10.0,WNW,10.4,-,N/A,,Clear,290,2013-08-01 14:54:00
7:54 AM,59.0,53.1,81,30.06,10.0,Calm,Calm,-,N/A,,Clear,0,2013-08-01 15:54:00
8:54 AM,64.0,54.0,70,30.05,10.0,WNW,8.1,-,N/A,,Clear,290,2013-08-01 16:54:00
9:54 AM,66.9,55.0,66,30.04,10.0,West,4.6,-,N/A,,Clear,280,2013-08-01 17:54:00
10:54 AM,64.0,54.0,70,30.04,10.0,SE,4.6,-,N/A,,Clear,130,2013-08-01 18:54:00
11:54 AM,64.9,55.9,73,30.03,10.0,SE,6.9,-,N/A,,Clear,130,2013-08-01 19:54:00
12:54 PM,66.0,55.9,70,30.03,10.0,SE,5.8,-,N/A,,Clear,130,2013-08-01 20:54:00
1:54 PM,68.0,55.9,65,30.01,10.0,SE,9.2,-,N/A,,Clear,130,2013-08-01 21:54:00
2:54 PM,69.1,57.0,65,30.00,10.0,SE,10.4,-,N/A,,Clear,130,2013-08-01 22:54:00
3:54 PM,70.0,57.0,63,29.99,10.0,SE,10.4,-,N/A,,Clear,130,2013-08-01 23:54:00
4:54 PM,68.0,55.9,65,29.98,10.0,SE,10.4,-,N/A,,Clear,140,2013-08-02 00:54:00
5:54 PM,69.1,55.9,63,29.97,10.0,SE,12.7,-,N/A,,Clear,130,2013-08-02 01:54:00
6:54 PM,66.0,55.9,70,29.97,10.0,East,6.9,-,N/A,,Clear,100,2013-08-02 02:54:00
7:54 PM,66.9,55.9,68,29.97,10.0,East,3.5,-,N/A,,Clear,80,2013-08-02 03:54:00
8:54 PM,63.0,55.9,78,29.98,10.0,Calm,Calm,-,N/A,,Clear,0,2013-08-02 04:54:00
9:54 PM,59.0,54.0,83,29.99,10.0,ESE,6.9,-,N/A,,Clear,120,2013-08-02 05:54:00
10:54 PM,59.0,54.0,83,30.00,10.0,East,5.8,-,N/A,,Clear,90,2013-08-02 06:54:00
11:54 PM,57.9,54.0,87,30.01,10.0,East,4.6,-,N/A,,Clear,80,2013-08-02 07:54:00